sensor_id;sensor_type;location;lat;lon;timestamp;P1;durP1;ratioP1;P2;durP2;ratioP2
46719;SDS011;32452;51.382;-0.002;2023-11-21T00:01:51;12.25;;;3.78;;
46719;SDS011;32452;51.382;-0.002;2023-11-21T00:04:36;7.80;;;3.80;;
46719;SDS011;32452;51.382;-0.002;2023-11-21T00:07:22;8.40;;;3.78;;
46719;SDS011;32452;51.382;-0.002;2023-11-21T00:10:09;8.82;;;3.60;;
46719;SDS011;32452;51.382;-0.002;2023-11-21T00:12:56;7.53;;;3.45;;
46719;SDS011;32452;51.382;-0.002;2023-11-21T00:15:41;8.55;;;4.00;;
46719;SDS011;32452;51.382;-0.002;2023-11-21T00:18:27;8.80;;;3.85;;
46719;SDS011;32452;51.382;-0.002;2023-11-21T00:21:13;8.40;;;3.95;;
46719;SDS011;32452;51.382;-0.002;2023-11-21T00:23:58;8.85;;;4.05;;
46719;SDS011;32452;51.382;-0.002;2023-11-21T00:26:44;9.20;;;4.40;;
46719;SDS011;32452;51.382;-0.002;2023-11-21T00:29:30;10.50;;;4.53;;
46719;SDS011;32452;51.382;-0.002;2023-11-21T00:32:15;11.95;;;4.70;;
46719;SDS011;32452;51.382;-0.002;2023-11-21T00:35:01;8.50;;;3.90;;
46719;SDS011;32452;51.382;-0.002;2023-11-21T00:37:47;7.82;;;4.70;;
46719;SDS011;32452;51.382;-0.002;2023-11-21T00:40:34;9.68;;;4.35;;
46719;SDS011;32452;51.382;-0.002;2023-11-21T00:43:20;13.00;;;4.90;;
46719;SDS011;32452;51.382;-0.002;2023-11-21T00:46:06;9.52;;;4.53;;
46719;SDS011;32452;51.382;-0.002;2023-11-21T00:48:55;11.20;;;4.70;;
46719;SDS011;32452;51.382;-0.002;2023-11-21T00:51:40;8.25;;;4.60;;
46719;SDS011;32452;51.382;-0.002;2023-11-21T00:54:26;9.15;;;4.95;;
46719;SDS011;32452;51.382;-0.002;2023-11-21T00:57:12;8.15;;;4.93;;
46719;SDS011;32452;51.382;-0.002;2023-11-21T00:59:58;11.05;;;5.55;;
46719;SDS011;32452;51.382;-0.002;2023-11-21T01:02:44;10.85;;;4.88;;
46719;SDS011;32452;51.382;-0.002;2023-11-21T01:05:30;10.18;;;5.05;;
46719;SDS011;32452;51.382;-0.002;2023-11-21T01:08:15;10.85;;;5.68;;
46719;SDS011;32452;51.382;-0.002;2023-11-21T01:11:01;9.60;;;5.43;;
46719;SDS011;32452;51.382;-0.002;2023-11-21T01:13:46;8.70;;;5.38;;
46719;SDS011;32452;51.382;-0.002;2023-11-21T01:16:33;11.32;;;5.95;;
46719;SDS011;32452;51.382;-0.002;2023-11-21T01:19:18;10.48;;;5.68;;
46719;SDS011;32452;51.382;-0.002;2023-11-21T01:22:04;8.85;;;5.15;;
46719;SDS011;32452;51.382;-0.002;2023-11-21T01:24:49;8.98;;;5.43;;
46719;SDS011;32452;51.382;-0.002;2023-11-21T01:27:35;11.05;;;5.45;;
46719;SDS011;32452;51.382;-0.002;2023-11-21T01:30:21;10.57;;;5.32;;
46719;SDS011;32452;51.382;-0.002;2023-11-21T01:33:07;10.20;;;5.93;;
46719;SDS011;32452;51.382;-0.002;2023-11-21T01:35:53;9.48;;;5.13;;
46719;SDS011;32452;51.382;-0.002;2023-11-21T01:38:39;10.70;;;5.85;;
46719;SDS011;32452;51.382;-0.002;2023-11-21T01:41:25;9.57;;;5.72;;
46719;SDS011;32452;51.382;-0.002;2023-11-21T01:44:12;11.05;;;5.00;;
46719;SDS011;32452;51.382;-0.002;2023-11-21T01:46:58;8.93;;;5.05;;
46719;SDS011;32452;51.382;-0.002;2023-11-21T01:49:43;10.02;;;5.30;;
46719;SDS011;32452;51.382;-0.002;2023-11-21T01:52:30;8.88;;;4.45;;
46719;SDS011;32452;51.382;-0.002;2023-11-21T01:55:16;11.07;;;4.75;;
46719;SDS011;32452;51.382;-0.002;2023-11-21T01:58:13;9.40;;;5.00;;
46719;SDS011;32452;51.382;-0.002;2023-11-21T02:00:59;7.18;;;3.47;;
46719;SDS011;32452;51.382;-0.002;2023-11-21T02:03:44;6.57;;;3.72;;
46719;SDS011;32452;51.382;-0.002;2023-11-21T02:06:30;7.10;;;3.85;;
46719;SDS011;32452;51.382;-0.002;2023-11-21T02:09:16;6.13;;;2.80;;
46719;SDS011;32452;51.382;-0.002;2023-11-21T02:12:02;5.07;;;2.83;;
46719;SDS011;32452;51.382;-0.002;2023-11-21T02:14:49;4.32;;;2.47;;
46719;SDS011;32452;51.382;-0.002;2023-11-21T02:17:36;9.43;;;3.13;;
46719;SDS011;32452;51.382;-0.002;2023-11-21T02:20:22;4.97;;;2.17;;
46719;SDS011;32452;51.382;-0.002;2023-11-21T02:23:10;4.80;;;2.55;;
46719;SDS011;32452;51.382;-0.002;2023-11-21T02:25:56;4.68;;;2.20;;
46719;SDS011;32452;51.382;-0.002;2023-11-21T02:28:42;4.13;;;2.17;;
46719;SDS011;32452;51.382;-0.002;2023-11-21T02:31:27;4.70;;;2.00;;
46719;SDS011;32452;51.382;-0.002;2023-11-21T02:34:17;3.92;;;2.00;;
46719;SDS011;32452;51.382;-0.002;2023-11-21T02:37:03;3.92;;;1.88;;
46719;SDS011;32452;51.382;-0.002;2023-11-21T02:39:48;4.07;;;2.08;;
46719;SDS011;32452;51.382;-0.002;2023-11-21T02:42:34;4.25;;;2.30;;
46719;SDS011;32452;51.382;-0.002;2023-11-21T02:45:20;5.90;;;2.58;;
46719;SDS011;32452;51.382;-0.002;2023-11-21T02:48:06;6.38;;;3.00;;
46719;SDS011;32452;51.382;-0.002;2023-11-21T02:50:52;5.75;;;3.17;;
46719;SDS011;32452;51.382;-0.002;2023-11-21T02:53:38;7.55;;;3.80;;
46719;SDS011;32452;51.382;-0.002;2023-11-21T02:56:24;7.25;;;3.83;;
46719;SDS011;32452;51.382;-0.002;2023-11-21T02:59:11;6.55;;;3.83;;
46719;SDS011;32452;51.382;-0.002;2023-11-21T03:01:57;9.07;;;4.35;;
46719;SDS011;32452;51.382;-0.002;2023-11-21T03:04:42;9.02;;;4.90;;
46719;SDS011;32452;51.382;-0.002;2023-11-21T03:07:28;9.13;;;5.15;;
46719;SDS011;32452;51.382;-0.002;2023-11-21T03:10:13;8.38;;;4.78;;
46719;SDS011;32452;51.382;-0.002;2023-11-21T03:12:59;9.73;;;5.13;;
46719;SDS011;32452;51.382;-0.002;2023-11-21T03:15:44;11.65;;;5.13;;
46719;SDS011;32452;51.382;-0.002;2023-11-21T03:18:30;9.02;;;5.10;;
46719;SDS011;32452;51.382;-0.002;2023-11-21T03:25:12;10.57;;;5.63;;
46719;SDS011;32452;51.382;-0.002;2023-11-21T03:27:58;9.18;;;5.22;;
46719;SDS011;32452;51.382;-0.002;2023-11-21T03:30:43;10.63;;;5.00;;
46719;SDS011;32452;51.382;-0.002;2023-11-21T03:33:29;9.50;;;4.70;;
46719;SDS011;32452;51.382;-0.002;2023-11-21T03:36:14;8.82;;;4.95;;
46719;SDS011;32452;51.382;-0.002;2023-11-21T03:39:00;12.35;;;5.13;;
46719;SDS011;32452;51.382;-0.002;2023-11-21T03:41:46;11.25;;;4.82;;
46719;SDS011;32452;51.382;-0.002;2023-11-21T03:44:31;7.38;;;3.75;;
46719;SDS011;32452;51.382;-0.002;2023-11-21T03:47:17;10.23;;;4.00;;
46719;SDS011;32452;51.382;-0.002;2023-11-21T03:50:04;7.03;;;3.05;;
46719;SDS011;32452;51.382;-0.002;2023-11-21T03:52:50;5.75;;;3.50;;
46719;SDS011;32452;51.382;-0.002;2023-11-21T03:55:36;5.97;;;3.30;;
46719;SDS011;32452;51.382;-0.002;2023-11-21T03:58:22;6.57;;;3.47;;
46719;SDS011;32452;51.382;-0.002;2023-11-21T04:01:07;6.28;;;2.95;;
46719;SDS011;32452;51.382;-0.002;2023-11-21T04:03:53;5.57;;;2.83;;
46719;SDS011;32452;51.382;-0.002;2023-11-21T04:06:38;6.38;;;2.83;;
46719;SDS011;32452;51.382;-0.002;2023-11-21T04:09:24;6.20;;;3.00;;
46719;SDS011;32452;51.382;-0.002;2023-11-21T04:12:10;5.68;;;2.72;;
46719;SDS011;32452;51.382;-0.002;2023-11-21T04:14:55;6.20;;;2.65;;
46719;SDS011;32452;51.382;-0.002;2023-11-21T04:17:41;4.60;;;2.50;;
46719;SDS011;32452;51.382;-0.002;2023-11-21T04:20:27;3.70;;;2.15;;
46719;SDS011;32452;51.382;-0.002;2023-11-21T04:23:13;3.05;;;1.98;;
46719;SDS011;32452;51.382;-0.002;2023-11-21T04:25:58;5.05;;;2.25;;
46719;SDS011;32452;51.382;-0.002;2023-11-21T04:28:45;3.35;;;2.05;;
46719;SDS011;32452;51.382;-0.002;2023-11-21T04:31:30;3.45;;;2.08;;
46719;SDS011;32452;51.382;-0.002;2023-11-21T04:34:17;2.58;;;1.70;;
46719;SDS011;32452;51.382;-0.002;2023-11-21T04:37:02;3.22;;;1.92;;
46719;SDS011;32452;51.382;-0.002;2023-11-21T04:39:51;3.53;;;1.90;;
46719;SDS011;32452;51.382;-0.002;2023-11-21T04:42:36;3.92;;;1.98;;
46719;SDS011;32452;51.382;-0.002;2023-11-21T04:45:22;4.93;;;1.98;;
46719;SDS011;32452;51.382;-0.002;2023-11-21T04:48:09;4.05;;;2.10;;
46719;SDS011;32452;51.382;-0.002;2023-11-21T04:50:55;5.88;;;2.10;;
46719;SDS011;32452;51.382;-0.002;2023-11-21T04:53:40;4.22;;;1.92;;
46719;SDS011;32452;51.382;-0.002;2023-11-21T04:56:26;2.47;;;1.60;;
46719;SDS011;32452;51.382;-0.002;2023-11-21T04:59:11;3.10;;;1.90;;
46719;SDS011;32452;51.382;-0.002;2023-11-21T05:01:57;5.45;;;1.98;;
46719;SDS011;32452;51.382;-0.002;2023-11-21T05:04:43;3.25;;;1.95;;
46719;SDS011;32452;51.382;-0.002;2023-11-21T05:07:28;2.97;;;1.70;;
46719;SDS011;32452;51.382;-0.002;2023-11-21T05:10:16;3.25;;;1.65;;
46719;SDS011;32452;51.382;-0.002;2023-11-21T05:13:02;3.88;;;1.60;;
46719;SDS011;32452;51.382;-0.002;2023-11-21T05:15:48;5.30;;;1.67;;
46719;SDS011;32452;51.382;-0.002;2023-11-21T05:18:34;5.55;;;1.63;;
46719;SDS011;32452;51.382;-0.002;2023-11-21T05:21:20;5.97;;;1.83;;
46719;SDS011;32452;51.382;-0.002;2023-11-21T05:24:06;5.65;;;2.00;;
46719;SDS011;32452;51.382;-0.002;2023-11-21T05:26:52;5.38;;;1.95;;
46719;SDS011;32452;51.382;-0.002;2023-11-21T05:29:37;5.30;;;2.22;;
46719;SDS011;32452;51.382;-0.002;2023-11-21T05:32:26;7.10;;;2.20;;
46719;SDS011;32452;51.382;-0.002;2023-11-21T05:35:11;3.65;;;1.95;;
46719;SDS011;32452;51.382;-0.002;2023-11-21T05:38:00;4.10;;;2.33;;
46719;SDS011;32452;51.382;-0.002;2023-11-21T05:40:45;7.05;;;2.75;;
46719;SDS011;32452;51.382;-0.002;2023-11-21T05:43:31;6.82;;;2.20;;
46719;SDS011;32452;51.382;-0.002;2023-11-21T05:46:17;5.32;;;2.55;;
46719;SDS011;32452;51.382;-0.002;2023-11-21T05:49:03;5.38;;;2.13;;
46719;SDS011;32452;51.382;-0.002;2023-11-21T05:51:48;3.80;;;1.90;;
46719;SDS011;32452;51.382;-0.002;2023-11-21T05:54:34;5.45;;;1.95;;
46719;SDS011;32452;51.382;-0.002;2023-11-21T05:57:19;5.47;;;2.53;;
46719;SDS011;32452;51.382;-0.002;2023-11-21T06:00:05;4.45;;;2.30;;
46719;SDS011;32452;51.382;-0.002;2023-11-21T06:03:07;5.00;;;2.25;;
46719;SDS011;32452;51.382;-0.002;2023-11-21T06:05:53;4.07;;;2.25;;
46719;SDS011;32452;51.382;-0.002;2023-11-21T06:08:38;4.95;;;2.38;;
46719;SDS011;32452;51.382;-0.002;2023-11-21T06:11:24;6.97;;;2.58;;
46719;SDS011;32452;51.382;-0.002;2023-11-21T06:14:10;5.65;;;2.63;;
46719;SDS011;32452;51.382;-0.002;2023-11-21T06:16:56;7.40;;;2.80;;
46719;SDS011;32452;51.382;-0.002;2023-11-21T06:19:43;5.47;;;2.40;;
46719;SDS011;32452;51.382;-0.002;2023-11-21T06:22:30;4.93;;;2.53;;
46719;SDS011;32452;51.382;-0.002;2023-11-21T06:25:16;6.28;;;2.33;;
46719;SDS011;32452;51.382;-0.002;2023-11-21T06:28:02;9.15;;;2.40;;
46719;SDS011;32452;51.382;-0.002;2023-11-21T06:30:48;6.47;;;2.00;;
46719;SDS011;32452;51.382;-0.002;2023-11-21T06:33:35;6.30;;;2.67;;
46719;SDS011;32452;51.382;-0.002;2023-11-21T06:36:21;5.32;;;2.22;;
46719;SDS011;32452;51.382;-0.002;2023-11-21T06:39:06;5.55;;;1.60;;
46719;SDS011;32452;51.382;-0.002;2023-11-21T06:41:52;6.95;;;2.30;;
46719;SDS011;32452;51.382;-0.002;2023-11-21T06:44:39;5.68;;;1.90;;
46719;SDS011;32452;51.382;-0.002;2023-11-21T06:47:26;8.25;;;2.25;;
46719;SDS011;32452;51.382;-0.002;2023-11-21T06:50:15;3.72;;;2.00;;
46719;SDS011;32452;51.382;-0.002;2023-11-21T06:53:00;5.65;;;2.40;;
46719;SDS011;32452;51.382;-0.002;2023-11-21T06:55:49;3.25;;;1.58;;
46719;SDS011;32452;51.382;-0.002;2023-11-21T06:58:34;2.58;;;1.40;;
46719;SDS011;32452;51.382;-0.002;2023-11-21T07:01:20;4.55;;;1.70;;
46719;SDS011;32452;51.382;-0.002;2023-11-21T07:04:05;5.13;;;1.80;;
46719;SDS011;32452;51.382;-0.002;2023-11-21T07:06:53;3.55;;;1.33;;
46719;SDS011;32452;51.382;-0.002;2023-11-21T07:09:39;6.07;;;1.55;;
46719;SDS011;32452;51.382;-0.002;2023-11-21T07:12:24;4.05;;;1.17;;
46719;SDS011;32452;51.382;-0.002;2023-11-21T07:15:10;3.45;;;1.40;;
46719;SDS011;32452;51.382;-0.002;2023-11-21T07:17:56;7.72;;;1.80;;
46719;SDS011;32452;51.382;-0.002;2023-11-21T07:20:41;2.88;;;1.70;;
46719;SDS011;32452;51.382;-0.002;2023-11-21T07:23:27;4.97;;;1.58;;
46719;SDS011;32452;51.382;-0.002;2023-11-21T07:26:13;4.13;;;1.48;;
46719;SDS011;32452;51.382;-0.002;2023-11-21T07:28:59;5.95;;;1.52;;
46719;SDS011;32452;51.382;-0.002;2023-11-21T07:31:45;5.22;;;1.70;;
46719;SDS011;32452;51.382;-0.002;2023-11-21T07:34:31;7.00;;;1.60;;
46719;SDS011;32452;51.382;-0.002;2023-11-21T07:37:16;5.90;;;1.98;;
46719;SDS011;32452;51.382;-0.002;2023-11-21T07:40:02;3.58;;;1.67;;
46719;SDS011;32452;51.382;-0.002;2023-11-21T07:42:49;4.65;;;1.70;;
46719;SDS011;32452;51.382;-0.002;2023-11-21T07:45:37;5.88;;;1.92;;
46719;SDS011;32452;51.382;-0.002;2023-11-21T07:48:24;7.28;;;2.58;;
46719;SDS011;32452;51.382;-0.002;2023-11-21T07:51:09;4.10;;;1.65;;
46719;SDS011;32452;51.382;-0.002;2023-11-21T07:53:55;3.97;;;2.13;;
46719;SDS011;32452;51.382;-0.002;2023-11-21T07:56:41;5.10;;;2.00;;
46719;SDS011;32452;51.382;-0.002;2023-11-21T07:59:27;6.47;;;2.35;;
46719;SDS011;32452;51.382;-0.002;2023-11-21T08:02:12;11.55;;;2.80;;
46719;SDS011;32452;51.382;-0.002;2023-11-21T08:04:58;4.85;;;2.00;;
46719;SDS011;32452;51.382;-0.002;2023-11-21T08:07:43;4.72;;;2.05;;
46719;SDS011;32452;51.382;-0.002;2023-11-21T08:10:29;8.27;;;2.67;;
46719;SDS011;32452;51.382;-0.002;2023-11-21T08:13:15;4.68;;;2.38;;
46719;SDS011;32452;51.382;-0.002;2023-11-21T08:16:01;8.05;;;2.67;;
46719;SDS011;32452;51.382;-0.002;2023-11-21T08:18:49;7.97;;;2.88;;
46719;SDS011;32452;51.382;-0.002;2023-11-21T08:21:35;5.93;;;2.60;;
46719;SDS011;32452;51.382;-0.002;2023-11-21T08:24:22;7.88;;;2.80;;
46719;SDS011;32452;51.382;-0.002;2023-11-21T08:27:08;8.85;;;3.10;;
46719;SDS011;32452;51.382;-0.002;2023-11-21T08:29:54;10.85;;;2.53;;
46719;SDS011;32452;51.382;-0.002;2023-11-21T08:32:40;5.53;;;2.30;;
46719;SDS011;32452;51.382;-0.002;2023-11-21T08:35:26;7.60;;;2.75;;
46719;SDS011;32452;51.382;-0.002;2023-11-21T08:38:12;7.22;;;2.55;;
46719;SDS011;32452;51.382;-0.002;2023-11-21T08:40:58;4.35;;;2.22;;
46719;SDS011;32452;51.382;-0.002;2023-11-21T08:43:44;9.00;;;2.67;;
46719;SDS011;32452;51.382;-0.002;2023-11-21T08:46:29;6.57;;;3.00;;
46719;SDS011;32452;51.382;-0.002;2023-11-21T08:49:15;5.03;;;2.25;;
46719;SDS011;32452;51.382;-0.002;2023-11-21T08:52:00;5.97;;;2.08;;
46719;SDS011;32452;51.382;-0.002;2023-11-21T08:54:46;6.30;;;1.83;;
46719;SDS011;32452;51.382;-0.002;2023-11-21T08:57:33;5.22;;;1.80;;
46719;SDS011;32452;51.382;-0.002;2023-11-21T09:00:22;3.75;;;2.25;;
46719;SDS011;32452;51.382;-0.002;2023-11-21T09:03:07;5.28;;;1.58;;
46719;SDS011;32452;51.382;-0.002;2023-11-21T09:05:54;4.78;;;1.80;;
46719;SDS011;32452;51.382;-0.002;2023-11-21T09:08:39;5.43;;;1.80;;
46719;SDS011;32452;51.382;-0.002;2023-11-21T09:11:25;5.35;;;2.05;;
46719;SDS011;32452;51.382;-0.002;2023-11-21T09:14:16;7.78;;;2.13;;
46719;SDS011;32452;51.382;-0.002;2023-11-21T09:17:02;7.65;;;1.85;;
46719;SDS011;32452;51.382;-0.002;2023-11-21T09:19:48;5.00;;;1.80;;
46719;SDS011;32452;51.382;-0.002;2023-11-21T09:22:36;3.45;;;1.90;;
46719;SDS011;32452;51.382;-0.002;2023-11-21T09:25:22;3.45;;;1.83;;
46719;SDS011;32452;51.382;-0.002;2023-11-21T09:28:07;3.33;;;1.80;;
46719;SDS011;32452;51.382;-0.002;2023-11-21T09:30:53;7.07;;;2.35;;
46719;SDS011;32452;51.382;-0.002;2023-11-21T09:33:39;6.38;;;1.60;;
46719;SDS011;32452;51.382;-0.002;2023-11-21T09:36:25;3.70;;;1.80;;
46719;SDS011;32452;51.382;-0.002;2023-11-21T09:39:13;8.77;;;1.90;;
46719;SDS011;32452;51.382;-0.002;2023-11-21T09:45:05;4.85;;;1.80;;
46719;SDS011;32452;51.382;-0.002;2023-11-21T09:47:57;7.20;;;1.77;;
46719;SDS011;32452;51.382;-0.002;2023-11-21T09:50:43;4.90;;;1.80;;
46719;SDS011;32452;51.382;-0.002;2023-11-21T09:53:34;4.32;;;1.60;;
46719;SDS011;32452;51.382;-0.002;2023-11-21T09:56:20;4.05;;;1.70;;
46719;SDS011;32452;51.382;-0.002;2023-11-21T09:59:10;6.10;;;1.85;;
46719;SDS011;32452;51.382;-0.002;2023-11-21T10:02:00;6.78;;;2.53;;
46719;SDS011;32452;51.382;-0.002;2023-11-21T10:04:47;5.28;;;1.65;;
46719;SDS011;32452;51.382;-0.002;2023-11-21T10:07:33;4.78;;;1.73;;
46719;SDS011;32452;51.382;-0.002;2023-11-21T10:10:20;4.60;;;1.55;;
46719;SDS011;32452;51.382;-0.002;2023-11-21T10:13:06;5.30;;;1.60;;
46719;SDS011;32452;51.382;-0.002;2023-11-21T10:15:56;4.10;;;1.48;;
46719;SDS011;32452;51.382;-0.002;2023-11-21T10:18:43;6.07;;;1.88;;
46719;SDS011;32452;51.382;-0.002;2023-11-21T10:21:31;5.10;;;1.60;;
46719;SDS011;32452;51.382;-0.002;2023-11-21T10:24:18;4.90;;;1.77;;
46719;SDS011;32452;51.382;-0.002;2023-11-21T10:27:04;4.15;;;1.92;;
46719;SDS011;32452;51.382;-0.002;2023-11-21T10:29:51;5.78;;;1.70;;
46719;SDS011;32452;51.382;-0.002;2023-11-21T10:32:36;5.45;;;2.35;;
46719;SDS011;32452;51.382;-0.002;2023-11-21T10:35:23;6.50;;;1.98;;
46719;SDS011;32452;51.382;-0.002;2023-11-21T10:38:08;4.43;;;1.70;;
46719;SDS011;32452;51.382;-0.002;2023-11-21T10:40:55;7.70;;;1.88;;
46719;SDS011;32452;51.382;-0.002;2023-11-21T10:43:41;5.80;;;1.58;;
46719;SDS011;32452;51.382;-0.002;2023-11-21T10:46:28;5.72;;;1.85;;
46719;SDS011;32452;51.382;-0.002;2023-11-21T10:49:19;4.07;;;1.67;;
46719;SDS011;32452;51.382;-0.002;2023-11-21T10:52:05;5.25;;;1.45;;
46719;SDS011;32452;51.382;-0.002;2023-11-21T10:54:51;2.25;;;1.63;;
46719;SDS011;32452;51.382;-0.002;2023-11-21T10:57:37;5.30;;;1.73;;
46719;SDS011;32452;51.382;-0.002;2023-11-21T11:00:24;2.65;;;1.52;;
46719;SDS011;32452;51.382;-0.002;2023-11-21T11:03:11;2.30;;;1.30;;
46719;SDS011;32452;51.382;-0.002;2023-11-21T11:06:01;4.53;;;1.27;;
46719;SDS011;32452;51.382;-0.002;2023-11-21T11:08:48;3.63;;;1.33;;
46719;SDS011;32452;51.382;-0.002;2023-11-21T11:11:35;2.70;;;1.70;;
46719;SDS011;32452;51.382;-0.002;2023-11-21T11:14:23;4.05;;;1.73;;
46719;SDS011;32452;51.382;-0.002;2023-11-21T11:17:11;4.68;;;1.48;;
46719;SDS011;32452;51.382;-0.002;2023-11-21T11:19:58;3.80;;;1.67;;
46719;SDS011;32452;51.382;-0.002;2023-11-21T11:22:59;4.57;;;1.33;;
46719;SDS011;32452;51.382;-0.002;2023-11-21T11:29:03;6.32;;;1.77;;
46719;SDS011;32452;51.382;-0.002;2023-11-21T11:32:11;3.53;;;1.50;;
46719;SDS011;32452;51.382;-0.002;2023-11-21T11:38:36;2.05;;;1.25;;
46719;SDS011;32452;51.382;-0.002;2023-11-21T11:41:26;3.08;;;1.73;;
46719;SDS011;32452;51.382;-0.002;2023-11-21T11:44:46;3.03;;;1.20;;
46719;SDS011;32452;51.382;-0.002;2023-11-21T11:47:56;3.08;;;1.33;;
46719;SDS011;32452;51.382;-0.002;2023-11-21T11:51:00;6.93;;;2.00;;
46719;SDS011;32452;51.382;-0.002;2023-11-21T11:53:49;5.15;;;2.38;;
46719;SDS011;32452;51.382;-0.002;2023-11-21T11:56:37;4.53;;;2.35;;
46719;SDS011;32452;51.382;-0.002;2023-11-21T11:59:24;4.10;;;2.40;;
46719;SDS011;32452;51.382;-0.002;2023-11-21T12:02:10;4.47;;;1.77;;
46719;SDS011;32452;51.382;-0.002;2023-11-21T12:04:56;7.40;;;2.03;;
46719;SDS011;32452;51.382;-0.002;2023-11-21T12:07:52;5.75;;;2.20;;
46719;SDS011;32452;51.382;-0.002;2023-11-21T12:10:39;3.08;;;1.65;;
46719;SDS011;32452;51.382;-0.002;2023-11-21T12:13:25;6.80;;;2.03;;
46719;SDS011;32452;51.382;-0.002;2023-11-21T12:16:13;3.28;;;1.65;;
46719;SDS011;32452;51.382;-0.002;2023-11-21T12:18:58;3.20;;;1.70;;
46719;SDS011;32452;51.382;-0.002;2023-11-21T12:21:44;3.25;;;1.90;;
46719;SDS011;32452;51.382;-0.002;2023-11-21T12:24:30;6.10;;;1.90;;
46719;SDS011;32452;51.382;-0.002;2023-11-21T12:27:15;4.22;;;2.35;;
46719;SDS011;32452;51.382;-0.002;2023-11-21T12:30:02;3.50;;;1.75;;
46719;SDS011;32452;51.382;-0.002;2023-11-21T12:32:51;4.47;;;1.90;;
46719;SDS011;32452;51.382;-0.002;2023-11-21T12:35:38;7.15;;;2.45;;
46719;SDS011;32452;51.382;-0.002;2023-11-21T12:38:39;3.28;;;1.77;;
46719;SDS011;32452;51.382;-0.002;2023-11-21T12:41:24;4.32;;;1.95;;
46719;SDS011;32452;51.382;-0.002;2023-11-21T12:44:20;3.80;;;2.20;;
46719;SDS011;32452;51.382;-0.002;2023-11-21T12:47:09;4.20;;;1.90;;
46719;SDS011;32452;51.382;-0.002;2023-11-21T12:49:57;4.32;;;1.90;;
46719;SDS011;32452;51.382;-0.002;2023-11-21T12:52:46;3.83;;;2.08;;
46719;SDS011;32452;51.382;-0.002;2023-11-21T12:55:32;3.35;;;1.88;;
46719;SDS011;32452;51.382;-0.002;2023-11-21T12:58:23;5.75;;;2.20;;
46719;SDS011;32452;51.382;-0.002;2023-11-21T13:01:10;5.68;;;2.17;;
46719;SDS011;32452;51.382;-0.002;2023-11-21T13:03:58;3.90;;;2.17;;
46719;SDS011;32452;51.382;-0.002;2023-11-21T13:06:44;5.07;;;2.47;;
46719;SDS011;32452;51.382;-0.002;2023-11-21T13:09:30;4.78;;;2.70;;
46719;SDS011;32452;51.382;-0.002;2023-11-21T13:12:15;5.53;;;2.45;;
46719;SDS011;32452;51.382;-0.002;2023-11-21T13:15:03;6.78;;;2.35;;
46719;SDS011;32452;51.382;-0.002;2023-11-21T13:17:51;6.18;;;2.58;;
46719;SDS011;32452;51.382;-0.002;2023-11-21T13:20:39;6.97;;;2.60;;
46719;SDS011;32452;51.382;-0.002;2023-11-21T13:23:26;2.92;;;1.90;;
46719;SDS011;32452;51.382;-0.002;2023-11-21T13:26:12;2.80;;;2.13;;
46719;SDS011;32452;51.382;-0.002;2023-11-21T13:28:59;3.10;;;2.00;;
46719;SDS011;32452;51.382;-0.002;2023-11-21T13:31:45;4.40;;;2.00;;
46719;SDS011;32452;51.382;-0.002;2023-11-21T13:34:31;3.50;;;1.45;;
46719;SDS011;32452;51.382;-0.002;2023-11-21T13:37:18;2.03;;;1.20;;
46719;SDS011;32452;51.382;-0.002;2023-11-21T13:40:04;1.50;;;0.68;;
46719;SDS011;32452;51.382;-0.002;2023-11-21T13:42:59;2.38;;;0.88;;
46719;SDS011;32452;51.382;-0.002;2023-11-21T13:45:48;1.75;;;0.60;;
46719;SDS011;32452;51.382;-0.002;2023-11-21T13:48:40;2.65;;;0.70;;
46719;SDS011;32452;51.382;-0.002;2023-11-21T13:51:28;1.80;;;0.60;;
46719;SDS011;32452;51.382;-0.002;2023-11-21T13:54:24;2.72;;;0.60;;
46719;SDS011;32452;51.382;-0.002;2023-11-21T13:57:10;3.25;;;0.77;;
46719;SDS011;32452;51.382;-0.002;2023-11-21T13:59:56;3.50;;;0.60;;
46719;SDS011;32452;51.382;-0.002;2023-11-21T14:02:43;2.83;;;0.88;;
46719;SDS011;32452;51.382;-0.002;2023-11-21T14:05:30;1.20;;;0.55;;
46719;SDS011;32452;51.382;-0.002;2023-11-21T14:08:19;2.53;;;0.73;;
46719;SDS011;32452;51.382;-0.002;2023-11-21T14:11:06;2.40;;;0.47;;
46719;SDS011;32452;51.382;-0.002;2023-11-21T14:13:52;2.97;;;0.75;;
46719;SDS011;32452;51.382;-0.002;2023-11-21T14:16:38;3.40;;;0.90;;
46719;SDS011;32452;51.382;-0.002;2023-11-21T14:19:24;3.13;;;0.95;;
46719;SDS011;32452;51.382;-0.002;2023-11-21T14:22:16;5.25;;;1.00;;
46719;SDS011;32452;51.382;-0.002;2023-11-21T14:25:02;2.20;;;0.77;;
46719;SDS011;32452;51.382;-0.002;2023-11-21T14:27:48;2.95;;;1.13;;
46719;SDS011;32452;51.382;-0.002;2023-11-21T14:30:34;3.90;;;1.42;;
46719;SDS011;32452;51.382;-0.002;2023-11-21T14:33:20;5.60;;;2.30;;
46719;SDS011;32452;51.382;-0.002;2023-11-21T14:36:06;3.03;;;1.10;;
46719;SDS011;32452;51.382;-0.002;2023-11-21T14:38:54;7.32;;;1.20;;
46719;SDS011;32452;51.382;-0.002;2023-11-21T14:41:40;7.68;;;0.82;;
46719;SDS011;32452;51.382;-0.002;2023-11-21T14:44:27;4.93;;;1.05;;
46719;SDS011;32452;51.382;-0.002;2023-11-21T14:47:17;4.88;;;1.40;;
46719;SDS011;32452;51.382;-0.002;2023-11-21T14:50:10;6.75;;;1.10;;
46719;SDS011;32452;51.382;-0.002;2023-11-21T14:53:14;4.25;;;0.90;;
46719;SDS011;32452;51.382;-0.002;2023-11-21T14:55:59;4.57;;;1.27;;
46719;SDS011;32452;51.382;-0.002;2023-11-21T14:58:46;8.00;;;1.48;;
46719;SDS011;32452;51.382;-0.002;2023-11-21T15:01:32;7.60;;;1.25;;
46719;SDS011;32452;51.382;-0.002;2023-11-21T15:04:34;6.30;;;1.60;;
46719;SDS011;32452;51.382;-0.002;2023-11-21T15:07:24;7.20;;;1.23;;
46719;SDS011;32452;51.382;-0.002;2023-11-21T15:10:12;5.53;;;1.10;;
46719;SDS011;32452;51.382;-0.002;2023-11-21T15:13:01;7.65;;;1.48;;
46719;SDS011;32452;51.382;-0.002;2023-11-21T15:15:47;2.97;;;1.20;;
46719;SDS011;32452;51.382;-0.002;2023-11-21T15:18:33;6.45;;;2.38;;
46719;SDS011;32452;51.382;-0.002;2023-11-21T15:21:23;7.88;;;1.40;;
46719;SDS011;32452;51.382;-0.002;2023-11-21T15:24:09;8.20;;;2.15;;
46719;SDS011;32452;51.382;-0.002;2023-11-21T15:26:56;5.28;;;1.30;;
46719;SDS011;32452;51.382;-0.002;2023-11-21T15:29:42;8.73;;;1.30;;
46719;SDS011;32452;51.382;-0.002;2023-11-21T15:32:29;14.55;;;2.58;;
46719;SDS011;32452;51.382;-0.002;2023-11-21T15:35:15;13.85;;;2.20;;
46719;SDS011;32452;51.382;-0.002;2023-11-21T15:38:00;6.60;;;1.60;;
46719;SDS011;32452;51.382;-0.002;2023-11-21T15:40:46;5.45;;;1.52;;
46719;SDS011;32452;51.382;-0.002;2023-11-21T15:43:32;11.60;;;2.45;;
46719;SDS011;32452;51.382;-0.002;2023-11-21T15:46:18;7.45;;;1.77;;
46719;SDS011;32452;51.382;-0.002;2023-11-21T15:49:04;10.45;;;3.10;;
46719;SDS011;32452;51.382;-0.002;2023-11-21T15:51:56;8.57;;;2.23;;
46719;SDS011;32452;51.382;-0.002;2023-11-21T15:54:44;7.00;;;1.73;;
46719;SDS011;32452;51.382;-0.002;2023-11-21T15:57:31;13.35;;;2.70;;
46719;SDS011;32452;51.382;-0.002;2023-11-21T16:00:16;12.20;;;2.20;;
46719;SDS011;32452;51.382;-0.002;2023-11-21T16:03:05;9.02;;;2.20;;
46719;SDS011;32452;51.382;-0.002;2023-11-21T16:05:51;7.47;;;2.28;;
46719;SDS011;32452;51.382;-0.002;2023-11-21T16:08:36;9.70;;;1.70;;
46719;SDS011;32452;51.382;-0.002;2023-11-21T16:11:22;11.30;;;2.50;;
46719;SDS011;32452;51.382;-0.002;2023-11-21T16:14:07;7.55;;;1.95;;
46719;SDS011;32452;51.382;-0.002;2023-11-21T16:16:53;7.80;;;2.67;;
46719;SDS011;32452;51.382;-0.002;2023-11-21T16:19:39;15.35;;;3.47;;
46719;SDS011;32452;51.382;-0.002;2023-11-21T16:22:27;14.50;;;2.53;;
46719;SDS011;32452;51.382;-0.002;2023-11-21T16:25:13;10.88;;;2.20;;
46719;SDS011;32452;51.382;-0.002;2023-11-21T16:27:59;13.43;;;2.38;;
46719;SDS011;32452;51.382;-0.002;2023-11-21T16:30:49;8.38;;;1.50;;
46719;SDS011;32452;51.382;-0.002;2023-11-21T16:33:36;10.43;;;2.25;;
46719;SDS011;32452;51.382;-0.002;2023-11-21T16:36:25;11.18;;;2.95;;
46719;SDS011;32452;51.382;-0.002;2023-11-21T16:39:12;10.55;;;2.00;;
46719;SDS011;32452;51.382;-0.002;2023-11-21T16:42:00;10.18;;;2.03;;
46719;SDS011;32452;51.382;-0.002;2023-11-21T16:44:52;6.68;;;2.05;;